Date,TemperatureHighF,TemperatureAvgF,TemperatureLowF,DewpointHighF,DewpointAvgF,DewpointLowF,HumidityHigh,HumidityAvg,HumidityLow,PressureMaxIn,PressureMinIn,WindSpeedMaxMPH,WindSpeedAvgMPH,GustSpeedMaxMPH,PrecipitationSumIn
2013-1-1,50.2,37.3,30.6,42.0,25.4,16.6,81,62,50,29.91,29.71,13,4,13,0.00
2013-1-2,32.5,28.1,24.6,19.5,9.7,5.9,63,46,34,30.10,29.82,20,5,20,0.00
2013-1-3,41.7,28.3,21.9,34.0,11.4,4.9,85,49,35,30.07,29.88,14,4,14,0.00
2013-1-4,52.0,33.5,27.5,48.1,17.6,13.2,93,52,42,30.03,29.85,22,8,22,0.00
2013-1-5,42.3,33.0,27.5,39.6,17.7,13.7,92,54,38,30.12,29.90,18,4,18,0.00
2013-1-6,52.2,38.7,25.9,51.6,26.2,21.2,99,64,36,29.99,29.81,17,4,17,0.01
2013-1-7,45.5,38.2,26.6,33.0,23.4,17.8,74,56,41,30.29,29.98,19,5,19,0.00
2013-1-8,60.1,37.7,25.5,44.0,27.5,18.8,99,69,34,30.28,30.14,10,2,10,0.00
2013-1-9,53.8,40.0,29.8,47.7,33.5,26.9,99,79,53,30.27,30.00,12,3,12,0.00
2013-1-10,51.3,41.6,35.6,34.6,24.1,21.3,69,50,37,30.42,30.22,17,5,17,0.00
2013-1-11,45.9,40.0,35.1,42.0,32.8,21.0,99,77,53,30.39,29.93,15,3,15,0.22
2013-1-12,58.3,44.2,40.5,52.9,42.9,40.2,99,95,63,30.07,29.96,7,2,7,0.04
2013-1-13,52.2,43.9,41.2,50.8,43.4,40.9,99,98,97,29.97,29.86,12,6,12,0.00
2013-1-14,54.0,48.0,38.3,52.0,41.4,27.1,99,80,47,30.22,29.83,21,5,21,0.18
2013-1-15,43.5,35.5,32.2,42.5,30.6,23.5,99,83,62,30.19,30.08,10,3,10,0.32
2013-1-16,41.2,34.0,31.6,39.8,33.5,31.4,99,98,75,30.10,29.67,13,1,13,0.56
2013-1-17,41.9,38.4,34.3,33.9,25.5,22.3,75,60,51,30.04,29.85,19,5,19,0.00
2013-1-18,35.8,30.1,24.1,23.5,7.6,-3.2,62,39,24,30.34,29.95,24,7,24,0.00
2013-1-19,51.4,38.1,26.4,27.1,21.0,10.3,67,51,31,30.30,29.83,19,9,19,0.00
2013-1-20,53.2,39.0,27.9,24.2,18.1,2.4,55,44,22,30.20,29.83,24,8,24,0.00
2013-1-21,34.7,27.2,22.8,25.5,8.8,1.6,77,46,32,30.19,29.85,17,6,17,0.00
2013-1-22,24.3,16.0,10.0,4.9,-10.5,-16.4,46,30,24,30.35,29.97,27,10,27,0.00
2013-1-23,22.5,13.7,8.8,-3.0,-11.7,-15.8,45,31,23,30.29,30.12,20,6,20,0.00
2013-1-24,24.6,17.7,11.8,15.3,-3.5,-11.7,75,41,24,30.58,30.11,24,6,24,0.00
2013-1-25,32.4,15.9,7.7,29.0,-1.8,-12.2,89,49,25,30.58,30.04,11,4,11,0.00
2013-1-26,28.0,20.0,8.6,20.9,7.9,1.5,85,60,41,30.39,30.13,14,4,18,0.00
2013-1-27,40.8,23.9,14.7,37.5,8.4,4.8,88,52,31,30.64,30.38,16,2,16,0.00
2013-1-28,44.1,31.4,25.5,42.2,28.6,14.7,99,90,62,30.62,30.10,14,5,14,0.00
2013-1-29,53.6,46.9,43.5,45.9,43.5,42.1,98,88,74,29.95,29.90,11,6,11,0.00
2013-1-30,44.1,43.3,43.0,43.5,42.7,42.3,98,98,98,29.90,29.47,11,5,11,0.00
2013-1-31,34.2,29.2,26.1,17.8,6.9,-2.2,60,39,27,30.15,29.93,30,13,30,0.11
2013-2-1,27.7,23.7,17.1,20.2,1.5,-7.0,84,40,24,30.55,30.03,37,11,37,0.00
2013-2-2,25.3,20.0,13.1,20.3,4.6,-6.6,87,54,30,30.54,30.19,18,7,18,0.00
2013-2-3,36.9,26.3,20.1,24.6,19.2,6.0,88,76,43,30.29,29.98,30,3,30,0.05
2013-2-4,34.0,25.6,19.6,18.4,6.9,1.4,69,45,32,30.22,30.10,24,7,24,0.00
2013-2-5,33.8,29.9,27.0,28.4,23.2,18.4,94,76,64,30.21,30.03,6,2,7,0.00
2013-2-6,41.4,32.1,25.5,30.1,21.6,9.5,99,68,41,30.62,30.14,25,5,25,0.01
2013-2-7,34.9,29.6,22.3,18.8,11.5,2.6,67,48,26,30.61,30.47,14,4,14,0.00
2013-2-8,36.0,33.7,29.7,33.4,29.3,17.7,99,85,57,30.51,29.89,23,7,23,0.13
2013-2-9,36.0,27.5,22.8,19.4,11.1,7.0,68,50,38,30.65,30.10,33,12,33,0.00
2013-2-10,42.6,30.4,17.1,19.2,8.2,0.0,60,41,22,30.68,30.51,15,5,15,0.00
2013-2-11,33.4,33.0,31.8,33.2,30.1,19.0,99,90,57,30.53,29.90,14,10,14,0.31
2013-2-12,46.0,33.8,28.8,23.6,20.3,18.4,70,58,40,30.27,30.10,7,2,7,0.00
2013-2-13,28.8,28.8,28.8,20.2,20.2,20.2,70,70,70,30.25,29.90,2,2,2,0.00
2013-3-4,31.6,29.8,28.4,16.8,15.8,15.1,57,55,53,29.98,29.93,17,6,17,0.01
2013-3-5,49.6,34.9,25.5,27.5,20.5,13.2,76,56,40,29.99,29.85,15,6,15,0.00
2013-3-6,37.9,35.3,32.7,34.5,30.4,24.2,96,83,62,29.92,29.62,33,14,33,0.24
2013-3-7,48.7,39.0,33.3,26.9,23.4,20.1,66,54,36,30.08,29.88,27,10,27,0.00
2013-3-8,43.5,37.4,30.9,26.5,21.8,17.2,67,53,47,30.22,29.99,32,12,32,0.00
2013-3-9,63.3,44.8,32.2,23.7,20.0,15.9,56,40,17,30.27,30.16,24,6,24,0.00
2013-3-10,58.5,46.4,36.7,34.2,24.7,15.7,88,45,22,30.30,30.19,21,7,21,0.00
2013-3-11,56.3,44.9,36.1,47.0,41.0,33.2,99,87,65,30.25,29.94,21,9,21,0.00
2013-3-12,55.9,49.9,40.3,54.9,44.9,28.5,98,84,62,29.95,29.66,25,10,25,1.38
2013-3-13,45.5,38.4,32.0,28.9,22.8,15.7,67,54,31,29.98,29.79,26,9,26,0.00
2013-3-14,41.9,34.2,28.9,18.9,11.0,5.1,58,39,25,29.99,29.84,33,14,33,0.00
2013-3-15,52.5,39.3,26.4,31.7,18.9,5.4,58,44,31,29.97,29.68,24,8,24,0.00
2013-3-16,44.2,36.8,31.6,32.0,29.7,25.8,96,76,58,29.89,29.66,18,4,18,0.09
2013-3-17,42.4,33.4,30.0,30.8,24.6,16.9,96,72,44,30.25,29.85,17,2,17,0.00
2013-3-18,35.6,32.2,29.3,32.4,22.2,12.1,95,68,48,30.25,29.83,21,7,21,0.22
2013-3-19,55.0,40.2,33.8,38.0,28.6,8.0,99,70,21,29.88,29.63,30,7,30,0.15
2013-3-20,48.0,38.3,27.3,19.3,14.5,8.0,56,39,21,29.89,29.70,27,9,27,0.00
2013-3-21,36.3,31.4,26.4,25.3,10.7,-0.6,81,44,21,29.80,29.60,24,8,24,0.00
2013-3-22,42.8,32.0,25.0,21.1,15.8,7.3,64,51,34,29.92,29.67,23,10,23,0.00
2013-3-23,47.7,36.6,27.7,22.6,18.5,16.0,65,49,31,29.94,29.83,27,8,27,0.00
2013-3-24,45.1,37.0,26.6,24.8,19.8,14.8,65,50,33,29.95,29.63,14,4,14,0.00
2013-3-25,35.8,33.8,30.7,31.9,29.0,23.0,93,83,62,29.67,29.40,14,4,14,0.47
2013-3-26,51.3,39.7,32.4,31.8,29.5,20.6,91,69,30,29.93,29.62,17,6,17,0.00
2013-3-27,49.8,41.6,36.1,28.7,26.1,21.9,69,55,36,30.03,29.86,25,10,26,0.00
2013-3-28,48.7,41.2,34.3,31.4,25.9,22.9,72,55,39,30.15,29.94,23,8,23,0.00
2013-3-29,53.2,42.7,37.2,29.6,26.5,21.8,68,53,29,30.17,30.05,17,5,17,0.00
2013-3-30,60.3,47.5,36.3,28.7,23.3,14.9,64,41,20,30.17,30.05,22,4,22,0.00
2013-3-31,53.2,44.6,38.5,46.5,37.0,26.1,99,76,53,30.11,29.68,21,5,21,0.08
2013-4-1,61.9,46.7,36.0,44.2,32.4,3.6,99,63,24,29.93,29.66,36,10,36,0.01
2013-4-2,44.1,37.0,30.4,14.7,8.7,3.6,46,31,22,30.11,29.89,28,10,28,0.00
2013-4-3,45.3,36.7,27.1,15.4,9.5,2.6,51,33,20,30.31,30.07,27,10,27,0.00
2013-4-4,51.1,38.3,26.2,27.6,13.6,6.0,62,37,20,30.30,30.04,18,6,18,0.00
2013-4-5,62.6,48.6,35.6,37.4,24.1,7.7,91,47,18,30.05,29.75,27,8,27,0.00
2013-4-6,57.0,43.3,32.4,26.1,15.4,6.9,56,34,18,30.27,30.00,17,6,17,0.00
2013-4-7,62.2,49.0,37.6,43.4,35.4,21.3,86,60,43,30.25,29.96,30,11,30,0.00
2013-4-8,78.3,64.8,49.6,50.8,45.5,40.6,75,52,31,30.05,29.95,19,6,19,0.00
2013-4-9,84.6,71.1,57.2,53.9,50.9,46.2,75,51,30,30.05,29.92,26,8,26,0.00
2013-4-10,89.1,75.0,60.6,59.2,54.5,50.5,90,51,33,29.95,29.79,27,7,27,0.04
2013-4-11,82.0,65.4,50.4,60.6,56.0,46.5,97,74,42,29.92,29.82,24,6,24,0.00
2013-4-12,50.9,47.0,44.2,49.4,46.4,43.7,99,97,92,29.87,29.60,24,8,24,0.43
2013-4-13,63.9,52.1,42.1,44.3,37.5,32.1,98,61,32,29.93,29.71,17,6,23,0.00
2013-4-14,64.2,51.9,39.7,37.0,32.0,23.9,82,50,23,30.14,29.92,22,5,22,0.00
2013-4-15,61.2,53.1,47.7,46.4,40.6,33.6,84,63,51,30.30,30.13,17,8,17,0.00
2013-4-16,71.2,59.1,49.5,56.3,51.0,45.7,88,76,55,30.28,30.10,25,10,25,0.00
2013-4-17,72.3,60.9,55.2,59.1,51.2,38.7,99,73,30,30.25,30.08,19,4,19,0.00
2013-4-18,64.0,57.1,53.2,59.4,51.5,37.4,98,82,52,30.26,30.00,21,8,21,0.05
2013-4-19,73.4,63.3,51.4,64.2,59.3,47.4,99,88,69,30.00,29.60,31,10,31,1.11
2013-4-20,56.7,50.7,42.4,50.2,34.9,18.8,95,60,25,30.30,29.75,30,8,30,0.09
2013-4-21,57.0,43.7,34.0,33.2,23.4,17.5,77,46,24,30.58,30.30,17,5,17,0.00
2013-4-22,56.7,44.5,33.4,35.6,31.9,27.8,89,63,40,30.58,30.40,20,6,20,0.00
2013-4-23,60.6,48.4,41.7,44.2,39.2,33.8,96,71,52,30.41,30.08,14,4,14,0.00
2013-4-24,72.0,55.8,40.3,57.5,49.0,39.8,99,80,53,30.12,29.79,36,6,36,0.05
2013-4-25,66.6,52.0,41.2,48.8,30.6,22.4,71,47,20,30.28,29.93,29,8,29,0.00
2013-4-26,68.4,53.9,43.3,36.8,30.1,17.2,65,43,16,30.43,30.26,16,5,16,0.00
2013-4-27,75.0,57.2,39.9,36.9,30.4,21.2,70,40,15,30.43,30.26,9,3,9,0.00
2013-4-28,70.5,58.0,45.7,43.2,39.5,32.6,87,53,27,30.27,30.14,21,5,21,0.00
2013-4-29,57.2,53.6,48.9,56.2,51.0,36.4,99,92,54,30.17,30.05,18,6,18,0.44
2013-4-30,68.5,58.3,51.1,52.3,48.2,32.8,99,72,46,30.27,30.11,17,6,17,0.02
2013-5-1,72.9,58.0,43.7,42.8,34.0,24.2,76,45,17,30.43,30.25,14,4,14,0.00
2013-5-2,73.6,58.6,41.0,47.3,42.2,39.4,99,59,31,30.44,30.30,13,3,13,0.00
2013-5-3,68.2,55.9,45.1,45.1,41.3,34.0,87,61,30,30.40,30.29,20,4,20,0.00
2013-5-4,71.4,55.7,38.7,46.1,40.4,33.9,99,62,27,30.34,30.17,19,4,19,0.00
2013-5-5,68.0,52.8,39.2,44.3,40.0,36.5,97,65,35,30.22,30.14,14,4,14,0.00
2013-5-6,67.5,53.9,39.2,54.8,48.3,38.7,99,83,62,30.18,30.07,15,4,15,0.00
2013-5-7,70.3,60.1,52.3,61.4,56.3,51.8,99,88,64,30.11,29.99,21,6,21,0.21
2013-5-8,77.4,64.0,55.4,60.6,55.2,46.8,99,76,41,30.02,29.93,14,4,14,0.05
2013-5-9,73.2,61.6,52.3,61.6,54.5,51.8,99,79,53,29.98,29.90,12,3,12,0.01
2013-5-10,84.6,69.8,54.1,61.0,56.5,49.5,97,67,32,30.03,29.89,28,4,28,0.91
2013-5-11,77.9,65.5,60.3,65.2,61.9,58.1,99,89,60,29.93,29.73,12,3,12,0.31
2013-5-12,61.3,57.1,45.7,58.1,37.4,21.7,93,52,23,29.99,29.72,28,9,28,0.01
2013-5-13,56.3,48.2,39.7,33.4,27.7,16.0,70,46,24,30.13,29.96,21,6,21,0.00
2013-5-14,63.3,50.1,34.9,46.4,29.3,21.3,94,48,22,30.17,30.02,19,4,19,0.05
2013-5-15,77.9,59.8,47.8,59.9,51.3,42.4,95,75,48,30.06,29.71,17,4,17,0.06
2013-5-16,82.6,71.1,62.4,65.8,60.0,52.8,91,70,44,29.91,29.73,14,4,14,0.04
2013-5-17,81.0,69.7,58.1,52.7,42.0,33.4,57,38,21,30.17,29.90,15,4,15,0.00
2013-5-18,72.1,62.5,56.7,57.0,50.0,46.7,96,65,46,30.24,30.17,15,4,15,0.05
2013-5-19,65.1,61.0,57.4,62.0,59.6,56.5,99,95,88,30.23,30.11,18,4,18,0.04
2013-5-20,83.3,70.5,61.7,70.0,64.4,61.1,99,83,56,30.13,30.00,14,2,14,0.00
2013-5-21,85.5,71.6,66.2,69.0,66.6,64.8,98,85,57,30.00,29.90,13,3,13,0.02
2013-5-22,81.9,69.7,67.5,70.6,67.3,65.5,97,92,64,29.93,29.87,8,2,8,0.00
2013-5-23,79.3,69.7,63.0,66.9,64.3,59.2,94,84,64,29.81,29.78,14,4,14,0.00
2013-5-24,63.3,54.9,45.3,61.1,47.6,35.2,96,77,57,30.03,29.73,29,10,29,0.00
2013-5-25,65.3,53.8,44.4,36.6,32.7,26.2,70,47,25,30.08,29.97,32,12,32,0.00
2013-5-26,70.9,55.5,46.9,42.0,35.3,28.2,65,48,22,30.19,30.07,32,9,32,6.63
2013-5-27,74.3,61.4,43.2,46.4,39.8,31.4,82,49,24,30.26,30.17,14,3,14,0.00
2013-5-28,68.9,60.4,54.1,63.4,55.8,45.8,95,85,70,30.20,30.08,11,2,11,0.01
2013-5-29,91.4,76.2,62.6,70.3,63.5,60.3,97,69,38,30.12,30.05,17,4,17,0.00
2013-5-30,96.1,80.7,65.8,68.1,63.8,59.3,88,59,36,30.19,30.11,18,3,18,0.00
2013-5-31,93.4,80.7,66.4,68.7,64.9,59.0,91,62,36,30.16,30.04,17,3,17,0.00
2013-6-1,92.7,80.2,66.2,69.8,66.2,63.8,94,65,44,30.06,29.93,14,3,14,0.00
2013-6-2,87.4,78.4,68.9,68.4,65.6,63.0,87,66,48,29.94,29.83,14,4,14,0.00
2013-6-3,87.3,72.6,64.9,66.8,61.7,51.7,95,71,43,29.93,29.84,21,4,21,0.00
2013-6-4,76.8,65.8,45.5,53.9,45.2,30.3,74,49,32,30.13,29.93,17,5,21,0.00
2013-6-5,83.1,68.6,52.3,50.0,44.8,30.3,77,46,18,30.19,30.07,14,3,14,0.00
2013-6-6,73.2,64.0,58.6,62.2,54.5,46.6,93,72,46,30.11,29.92,19,6,19,0.00
2013-6-7,70.9,65.3,60.3,69.1,63.8,58.2,97,95,91,29.93,29.61,18,4,18,0.01
2013-6-8,82.6,68.9,61.9,63.2,60.0,56.1,95,75,48,30.10,29.67,18,5,18,0.00
2013-6-9,87.3,72.8,59.5,62.9,58.1,53.1,84,62,41,30.21,30.10,9,2,9,0.00
2013-6-10,76.3,70.0,65.8,72.5,67.1,61.9,96,90,76,30.15,29.81,21,4,21,0.01
2013-6-11,79.7,72.9,65.1,66.8,62.6,57.1,96,72,56,29.84,29.76,21,8,21,0.02
2013-6-12,82.2,74.3,64.2,63.6,60.7,57.3,81,63,50,29.88,29.83,19,5,19,0.00
2013-6-13,84.4,72.0,63.3,69.8,62.4,56.0,95,73,50,29.86,29.45,32,8,45,13.14
2013-6-14,79.5,65.8,55.6,56.4,53.2,49.1,91,67,38,30.12,29.57,19,7,19,14.42
2013-6-15,81.9,70.9,58.8,58.4,53.4,47.7,81,56,34,30.07,29.90,16,4,16,0.05
2013-6-16,83.3,66.5,58.6,62.3,54.1,48.2,77,66,45,29.95,29.81,13,1,13,6.09
2013-6-17,71.2,70.8,70.2,66.2,65.6,64.8,84,84,83,29.93,29.92,9,2,9,0.00
2013-6-18,72.9,67.8,66.0,66.9,64.0,62.4,91,87,83,29.92,29.85,6,1,6,2.75
2013-6-24,77.9,71.5,68.7,71.8,68.4,65.5,97,90,78,29.95,29.91,10,2,10,0.07
2013-6-25,94.5,80.2,64.9,74.9,69.5,64.7,99,73,46,29.94,29.78,31,3,31,0.15
2013-6-26,92.1,77.9,64.4,73.2,69.1,64.1,99,77,50,29.81,29.70,15,3,15,0.04
2013-6-27,89.4,76.0,66.7,78.2,71.2,66.3,99,86,57,29.74,29.50,16,3,16,0.28
2013-6-28,87.6,73.8,68.5,72.3,69.2,66.2,99,87,51,29.52,29.40,14,4,14,0.35
2013-6-29,91.9,77.7,63.9,69.7,65.9,61.7,99,71,40,30.02,29.42,11,3,11,0.18
2013-6-30,87.8,77.1,70.2,75.8,71.7,66.7,99,84,58,30.14,30.02,18,4,18,1.04
2013-7-3,81.7,78.0,74.8,74.8,74.2,73.4,96,88,79,29.97,29.92,7,2,7,0.00
2013-7-4,91.2,80.6,72.3,74.7,72.5,70.2,98,78,54,30.00,29.91,17,4,17,0.00
2013-7-5,93.6,82.3,71.8,75.2,73.0,70.9,98,76,50,29.96,29.86,13,3,13,0.00
2013-7-6,97.9,84.2,72.3,74.9,72.4,69.1,96,70,42,29.92,29.80,11,3,11,0.00
2013-7-7,96.3,80.2,68.5,75.0,70.8,67.7,98,75,46,29.85,29.71,25,3,25,0.20
2013-7-8,88.2,75.9,66.9,71.8,68.4,64.2,98,79,52,29.83,29.77,24,3,24,0.07
2013-7-9,88.9,77.1,68.7,73.9,70.3,67.3,99,81,57,29.83,29.76,12,2,12,0.00
2013-7-10,93.0,79.1,72.7,76.5,73.1,70.2,99,83,53,29.77,29.61,12,3,12,0.13
2013-7-11,89.4,77.3,71.2,71.5,68.4,39.2,95,76,50,29.68,29.59,14,3,14,0.25
2013-7-12,73.2,69.7,67.3,68.8,65.3,58.8,99,87,62,29.78,29.67,19,4,19,0.69
2013-7-13,88.3,76.3,68.4,73.2,70.4,68.1,99,83,56,30.06,29.77,17,4,17,0.25
2013-7-14,96.8,81.7,70.9,77.5,71.7,67.9,99,75,43,30.11,30.03,11,2,11,0.00
2013-7-15,95.4,83.9,71.2,74.0,71.3,68.5,95,68,47,30.05,29.94,15,3,15,0.00
2013-7-16,97.5,86.3,77.2,73.7,70.6,66.3,85,62,40,30.01,29.93,14,3,14,0.00
2013-7-17,101.7,86.3,75.4,73.9,70.2,66.8,85,61,36,29.98,29.85,10,2,10,0.00
2013-7-18,101.1,86.7,73.9,77.8,73.8,70.7,91,68,44,29.88,29.76,14,3,14,0.00
2013-7-19,99.0,86.5,76.3,79.1,74.6,64.5,97,70,43,29.77,29.61,22,3,22,0.00
2013-7-20,92.8,82.0,73.2,76.1,70.4,65.0,87,69,48,29.64,29.55,17,4,17,0.01
2013-7-21,91.0,79.5,70.5,74.0,70.0,66.7,94,75,48,29.71,29.63,10,2,10,0.00
2013-7-22,92.7,78.9,70.0,74.4,71.2,68.2,97,79,48,29.71,29.52,12,3,12,0.27
2013-7-23,86.4,77.1,70.3,74.5,69.9,65.9,99,80,53,29.55,29.39,17,4,17,0.51
2013-7-24,82.8,74.2,64.4,68.1,63.5,53.2,93,70,46,29.70,29.43,16,4,16,0.00
2013-7-25,76.3,65.3,55.9,62.6,56.5,50.7,98,74,58,29.80,29.68,12,4,12,0.00
2013-7-26,88.2,72.4,59.4,62.5,59.6,54.8,99,68,36,29.83,29.77,14,3,14,0.00
2013-7-27,86.7,72.9,61.5,70.1,65.6,60.8,99,80,51,29.81,29.67,16,4,16,0.00
2013-7-28,87.3,75.1,68.0,72.0,67.7,63.1,97,79,49,29.74,29.65,14,4,14,0.33
2013-7-29,82.8,72.3,63.7,68.5,58.7,52.8,99,66,40,29.90,29.73,16,4,16,0.19
2013-7-30,84.2,72.0,61.3,62.0,57.2,53.9,92,61,41,29.96,29.90,14,4,14,0.00
2013-7-31,85.3,73.1,60.6,66.6,63.2,58.7,97,73,48,29.91,29.77,10,2,10,0.00
2013-8-1,84.9,71.4,66.4,72.3,68.3,65.0,99,91,61,29.78,29.58,12,2,12,0.60
2013-8-2,86.9,75.2,64.4,69.4,63.9,59.7,99,71,45,29.71,29.59,15,4,15,0.00
2013-8-3,77.4,69.9,63.3,67.1,63.6,60.5,99,81,67,29.72,29.66,15,3,15,0.00
2013-8-4,81.9,70.3,61.7,65.6,57.3,4.8,99,66,42,29.93,29.65,100,6,100,0.00
2013-8-5,82.6,68.7,55.8,58.6,54.4,48.0,97,64,33,29.86,29.76,15,2,15,0.00
2013-8-6,73.6,65.1,58.3,65.2,60.9,54.3,99,86,67,29.85,29.77,15,4,15,0.08
2013-8-7,78.1,69.8,64.8,71.3,67.6,64.5,99,93,78,29.84,29.77,17,5,17,0.20
2013-8-8,88.5,75.5,67.8,76.9,71.7,67.6,99,89,63,29.80,29.74,21,3,21,0.46
2013-8-9,88.7,79.0,73.4,77.5,73.6,70.7,99,84,63,29.75,29.60,15,5,15,0.13
2013-8-10,87.1,76.5,67.8,72.0,65.3,60.6,92,70,46,29.83,29.68,12,4,12,0.00
2013-8-11,89.2,75.2,63.7,68.3,63.7,59.0,97,70,45,29.90,29.77,10,2,10,0.00
2013-8-12,90.0,76.5,68.0,72.8,67.7,63.0,99,78,43,29.80,29.68,9,2,9,0.01
2013-8-13,85.6,72.1,65.7,72.0,67.6,62.3,99,87,55,29.68,29.49,14,4,14,2.98
2013-8-14,74.7,65.5,56.1,61.9,51.9,46.4,97,63,44,29.83,29.56,24,8,24,0.00
2013-8-15,84.4,66.4,52.5,56.9,52.6,47.3,97,66,33,29.92,29.83,11,2,11,0.00
2013-8-16,87.8,68.9,52.0,61.2,55.8,50.3,99,69,33,29.95,29.87,8,1,8,0.00
2013-8-17,87.3,70.7,55.9,61.8,58.0,52.8,99,69,37,30.01,29.95,10,2,10,0.00
2013-8-18,74.5,66.3,61.9,62.8,60.0,56.4,97,81,62,30.00,29.91,11,2,11,0.02
2013-8-19,79.2,67.5,58.5,66.8,62.1,56.1,99,83,63,29.92,29.82,10,1,10,0.00
2013-8-20,89.2,74.3,61.7,69.9,65.4,61.1,99,77,43,29.91,29.83,12,2,12,0.00
2013-8-21,91.8,77.1,61.5,73.3,68.3,61.0,99,77,50,29.95,29.82,14,2,14,0.00
2013-8-22,87.6,77.7,70.5,73.3,69.9,65.4,97,79,53,29.84,29.68,14,4,14,0.00
2013-8-23,79.0,70.8,64.0,67.8,64.0,58.7,95,79,58,29.86,29.69,12,3,12,0.00
2013-8-24,86.4,70.3,59.2,60.0,56.6,50.3,93,65,34,30.10,29.86,12,3,12,0.00
2013-8-25,85.5,68.8,54.5,65.7,57.8,53.5,99,72,38,30.15,30.01,10,2,10,0.00
2013-8-26,87.8,73.0,57.7,65.9,61.1,54.2,94,68,46,30.03,29.72,14,3,14,0.00
2013-8-27,91.2,78.5,71.1,71.4,67.5,64.2,94,70,46,29.72,29.63,13,4,14,0.00
2013-8-28,87.6,74.4,69.4,73.6,70.6,68.7,99,89,60,29.67,29.58,14,2,14,0.17
2013-8-29,87.4,74.6,68.5,71.8,69.4,67.9,99,85,55,29.78,29.62,11,3,11,0.01
2013-8-30,90.9,76.0,68.0,72.6,69.3,66.2,95,81,54,29.78,29.64,11,3,11,0.00
2013-8-31,91.0,78.0,69.1,74.7,71.7,68.5,98,82,56,29.65,29.56,12,3,12,0.02
2013-9-1,93.2,80.1,70.5,74.5,72.1,70.0,98,79,50,29.61,29.53,11,2,11,0.00
2013-9-2,93.9,78.8,68.0,74.3,70.6,65.1,97,78,45,29.56,29.49,14,3,16,0.31
2013-9-3,82.9,74.1,64.9,72.5,61.9,54.3,98,68,42,29.69,29.48,21,6,21,0.00
2013-9-4,82.6,69.6,59.4,58.3,55.5,49.5,87,63,36,29.81,29.69,15,4,15,0.00
2013-9-5,82.2,69.7,57.4,62.0,55.3,48.0,84,62,35,29.89,29.74,16,5,16,0.00
2013-9-6,78.3,61.9,49.6,49.7,45.0,35.6,92,58,23,29.98,29.88,11,3,11,0.00
2013-9-7,84.0,64.8,46.6,61.9,52.9,46.0,99,71,33,29.88,29.68,11,2,11,0.00
2013-9-8,83.5,72.0,61.2,66.2,60.5,42.7,94,69,49,29.82,29.63,16,5,16,0.00
2013-9-9,77.9,64.8,52.3,64.7,54.8,43.6,96,71,53,29.94,29.82,13,4,13,0.00
2013-9-10,92.5,77.9,65.8,75.1,70.7,64.7,98,81,54,29.93,29.83,12,3,12,0.00
2013-9-11,95.4,82.0,70.2,78.3,72.8,68.1,99,76,47,29.90,29.76,16,2,16,0.00
2013-9-12,90.9,75.6,67.1,74.6,70.8,66.1,99,86,57,29.76,29.50,27,2,27,0.14
2013-9-13,75.6,67.5,58.8,68.1,57.1,48.7,99,72,45,29.66,29.44,18,6,18,0.01
2013-9-14,67.1,56.9,46.0,50.2,47.1,44.6,99,71,48,29.89,29.66,17,6,17,0.00
2013-9-15,77.5,59.4,42.4,58.7,49.7,42.0,99,74,39,29.94,29.84,16,2,16,0.00
2013-9-16,72.7,61.7,55.4,59.0,55.6,50.5,99,82,51,30.06,29.85,17,3,17,0.06
2013-9-17,72.5,55.3,43.2,50.5,43.0,38.7,97,67,33,30.20,30.06,18,4,18,0.00
2013-9-18,74.8,56.3,41.7,55.8,44.9,35.6,99,71,29,30.14,30.00,11,2,11,0.00
2013-9-19,82.6,62.2,46.6,57.9,52.7,46.2,99,75,38,30.01,29.90,10,2,10,0.00
2013-9-20,83.5,65.9,51.1,62.1,57.0,50.8,99,76,44,29.91,29.81,12,2,12,0.00
2013-9-21,77.7,63.8,54.0,65.2,59.6,53.1,99,88,54,29.82,29.53,24,4,24,0.78
2013-9-22,69.8,61.6,52.3,60.6,52.2,44.7,99,74,45,29.75,29.53,17,6,17,0.01
2013-9-23,66.4,55.8,46.8,47.2,43.6,40.4,96,65,45,29.87,29.75,17,4,17,0.00
2013-9-24,74.5,56.0,42.6,50.7,45.4,41.3,99,71,37,29.87,29.73,16,4,16,0.00
2013-9-25,81.9,60.0,49.1,52.5,46.9,39.6,94,66,23,29.77,29.70,11,3,11,0.00
2013-9-26,79.0,60.6,48.4,57.4,52.4,47.6,99,77,41,29.91,29.73,8,2,8,0.00
2013-9-27,77.0,63.2,54.3,59.8,54.7,48.7,98,77,41,30.06,29.90,11,2,11,0.00
2013-9-28,79.3,61.6,51.4,56.0,52.6,49.1,98,76,37,30.11,30.03,10,2,10,0.00
2013-9-29,77.7,60.4,49.6,57.6,52.4,49.2,99,79,43,30.03,29.89,12,2,12,0.00
2013-9-30,80.8,61.2,48.6,61.2,52.4,48.1,99,77,36,29.90,29.80,11,1,11,0.00
2013-10-1,80.6,65.9,51.6,61.1,56.6,51.0,99,75,44,29.85,29.78,19,3,19,0.00
2013-10-2,84.2,71.9,62.8,62.9,60.1,56.8,89,68,46,29.88,29.81,18,5,18,0.00
2013-10-3,85.8,72.3,61.3,65.8,61.7,57.7,94,71,46,29.95,29.86,9,2,9,0.00
2013-10-4,88.2,72.6,61.5,69.1,64.4,61.0,99,78,45,29.91,29.85,12,2,12,0.00
2013-10-5,93.2,76.1,67.3,70.4,65.8,62.2,98,73,41,29.92,29.83,11,2,11,0.45
2013-10-6,87.3,72.1,65.1,70.5,66.7,64.2,99,85,54,29.88,29.77,17,5,17,0.01
2013-10-7,72.7,65.2,55.6,70.4,62.2,44.6,99,90,66,29.85,29.60,30,7,30,0.65
2013-10-8,67.3,56.3,48.7,50.0,46.4,42.9,96,71,44,30.12,29.85,17,4,17,0.00
2013-10-9,60.4,54.9,50.4,49.5,46.7,43.1,89,74,65,30.13,30.05,17,5,17,0.00
2013-10-10,56.1,53.9,50.9,55.7,52.3,47.3,99,94,76,30.05,29.80,24,7,24,1.29
2013-10-11,61.2,58.5,55.0,60.4,58.0,54.0,99,98,96,29.85,29.75,18,6,18,2.50
2013-10-12,72.0,63.8,59.7,59.8,54.1,46.4,96,72,45,30.01,29.83,18,7,18,0.00
2013-10-13,71.4,60.1,50.9,56.3,51.8,47.9,93,75,50,30.16,30.00,22,5,22,0.00
2013-10-14,73.9,57.6,50.4,53.0,50.9,49.3,99,80,45,30.15,30.03,8,2,8,0.00
2013-10-15,78.1,59.0,46.6,56.8,49.3,43.3,99,75,33,30.06,29.91,8,2,8,0.00
2013-10-16,69.6,60.4,52.3,60.4,56.4,49.4,99,87,67,29.91,29.73,9,2,9,0.00
2013-10-17,76.3,64.9,59.7,64.7,61.4,56.8,99,89,64,29.73,29.54,17,3,17,0.05
2013-10-18,66.2,56.1,44.6,56.7,44.8,40.3,97,68,42,29.83,29.60,17,6,25,0.00
2013-10-19,63.9,52.5,42.1,54.4,47.1,41.8,99,84,57,29.82,29.56,17,3,17,0.06
2013-10-20,62.8,51.2,43.0,47.7,38.6,33.8,92,64,36,29.85,29.64,26,8,26,0.00
2013-10-21,68.5,52.7,39.2,47.6,39.9,31.3,96,67,29,29.89,29.76,17,3,17,0.00
2013-10-22,62.2,52.2,45.1,52.7,45.2,31.2,99,78,50,29.77,29.59,12,3,12,0.00
2013-10-23,55.8,46.9,42.3,38.2,33.7,29.2,77,61,40,29.65,29.42,18,5,18,0.00
2013-10-24,50.4,42.4,37.4,34.9,30.4,24.5,80,64,39,30.07,29.64,23,8,23,0.00
2013-10-25,52.9,43.4,36.7,35.5,31.2,27.1,75,63,44,30.22,30.04,23,9,23,0.00
2013-10-26,57.9,45.6,33.3,32.9,29.0,24.0,79,54,29,30.20,29.88,27,6,27,0.00
2013-10-27,57.7,48.0,37.6,34.8,31.6,29.3,79,54,35,30.14,29.88,19,6,20,0.00
2013-10-28,65.5,46.8,32.4,40.5,34.5,29.5,94,67,32,30.25,30.09,11,2,11,0.00
2013-10-29,69.6,50.2,39.0,44.0,38.7,34.7,94,67,35,30.34,30.24,10,2,10,0.00
2013-10-30,60.4,50.8,43.7,55.2,49.4,43.2,99,95,81,30.32,30.12,7,2,7,0.01
2013-10-31,64.8,57.9,50.9,60.4,55.6,50.6,99,93,80,30.17,29.77,19,5,19,0.02
2013-11-1,74.1,63.6,54.7,64.0,56.7,45.4,99,81,37,29.95,29.56,36,7,36,0.12
2013-11-2,69.1,56.2,46.0,57.7,45.2,38.6,99,68,44,30.08,29.90,21,4,21,0.00
2013-11-3,54.9,45.4,32.4,43.1,30.2,16.5,83,58,24,30.69,30.08,24,7,24,0.00
2013-11-4,48.2,36.4,27.7,24.9,18.3,9.6,70,50,23,30.87,30.69,14,3,14,0.00
2013-11-5,60.6,46.7,34.3,45.2,37.3,24.4,95,71,50,30.83,30.70,11,3,11,0.00
2013-11-6,66.4,54.3,42.8,52.4,47.7,42.3,99,80,55,30.70,30.30,17,4,17,0.00
2013-11-7,58.1,52.1,42.1,56.4,46.5,24.3,97,82,50,30.30,30.08,25,8,25,0.08
2013-11-8,48.7,41.4,32.7,32.9,25.7,22.6,74,54,40,30.50,30.25,32,8,32,0.00
2013-11-9,55.2,42.2,29.1,34.9,28.0,21.6,78,59,32,30.52,30.20,17,4,17,0.00
2013-11-10,58.5,48.7,38.3,36.5,30.0,26.1,75,49,37,30.41,30.14,32,11,32,0.00
2013-11-11,57.2,46.9,37.4,37.9,31.6,27.3,72,56,36,30.47,30.24,20,6,20,0.00
2013-11-12,48.7,37.1,28.9,36.1,18.8,6.7,77,48,30,30.59,30.19,26,8,26,0.00
2013-11-13,41.4,31.9,26.2,20.8,15.1,6.5,66,51,29,30.62,30.51,30,6,30,0.00
2013-11-14,58.5,39.8,25.3,32.3,18.0,7.9,77,47,18,30.58,30.40,19,4,19,0.00
2013-11-15,62.2,44.0,31.6,35.5,27.2,21.2,73,54,22,30.51,30.38,9,2,9,0.00
2013-11-16,59.4,48.6,40.6,47.8,44.0,33.9,99,85,62,30.53,30.46,11,3,11,0.08
2013-11-17,63.9,54.7,47.8,58.9,52.8,47.6,99,94,73,30.49,30.01,20,6,20,0.01
2013-11-18,64.8,57.9,45.9,59.5,35.4,20.3,99,48,21,30.14,29.94,28,11,28,0.11
2013-11-19,48.4,41.6,33.8,28.0,24.3,19.1,58,50,43,30.60,30.13,29,10,29,0.00
2013-11-20,49.3,36.1,26.4,26.4,16.9,8.3,72,48,23,30.81,30.56,13,3,13,0.00
2013-11-21,50.9,40.7,29.3,40.1,29.8,15.5,79,65,51,30.79,30.61,9,3,9,0.00
2013-11-22,55.6,49.5,45.1,51.2,46.3,39.9,99,89,79,30.63,30.20,20,3,20,0.04
2013-11-23,51.8,40.0,27.0,46.9,24.7,-2.5,84,55,28,30.38,30.19,28,12,28,0.00
2013-11-24,30.0,24.7,20.5,8.4,-3.3,-9.5,54,30,20,30.68,30.33,34,14,34,0.02
2013-11-25,36.0,26.4,18.7,15.2,6.8,0.1,56,44,23,30.68,30.50,16,7,16,0.00
2013-11-26,48.9,33.7,30.2,48.3,24.8,8.2,99,73,38,30.54,29.84,21,4,21,0.50
2013-11-27,55.2,37.1,28.2,54.4,32.3,11.6,99,84,49,30.16,29.66,34,13,34,0.44
2013-11-28,35.8,29.5,26.1,16.9,12.5,8.8,63,49,36,30.70,30.16,29,9,29,0.00
2013-11-29,41.4,29.7,21.9,21.6,15.7,13.0,71,56,38,30.94,30.63,20,4,20,0.00
2013-11-30,39.7,29.2,20.8,23.8,16.3,8.6,75,59,46,30.94,30.60,11,3,11,0.00
2013-12-1,47.1,35.3,25.3,34.7,25.7,21.0,94,69,46,30.60,30.26,9,2,10,0.00
2013-12-2,49.6,40.2,35.4,34.6,31.1,25.0,80,70,53,30.26,30.06,7,2,7,0.00
2013-12-3,58.5,43.4,36.7,36.3,33.3,30.3,86,69,39,30.26,30.09,12,2,12,0.00
2013-12-4,52.2,45.5,37.2,47.9,38.7,31.6,99,78,63,30.34,29.92,10,3,10,0.00
2013-12-5,57.4,52.4,48.2,57.1,51.9,47.9,99,98,97,29.92,29.92,13,5,13,0.01
2013-12-6,59.0,45.7,34.2,58.7,45.1,33.1,99,98,94,29.92,29.92,23,7,23,0.50
2013-12-7,39.6,33.5,27.9,33.0,25.6,15.0,96,74,55,29.92,29.92,18,7,18,0.04
2013-12-8,28.2,25.6,23.9,25.4,17.6,10.7,90,72,53,29.92,29.92,14,4,14,0.00
2013-12-9,36.5,32.2,27.9,34.1,30.6,25.3,97,94,87,29.92,29.92,8,2,8,0.14
2013-12-10,34.7,29.3,22.1,31.4,23.7,9.2,98,81,46,29.92,29.92,17,4,17,0.02
2013-12-11,35.2,25.2,16.5,14.9,10.1,6.7,76,53,33,29.92,29.92,16,4,16,0.01
2013-12-12,29.1,21.8,14.0,13.0,2.7,-7.1,64,44,23,29.92,29.92,18,5,18,0.00
2013-12-13,38.1,26.4,14.7,14.7,6.3,-4.2,61,42,29,29.92,29.92,23,6,23,0.00
2013-12-14,32.9,30.2,25.9,30.4,21.8,12.2,95,72,51,29.92,29.92,19,4,19,0.19
2013-12-15,41.7,31.8,24.6,32.8,24.5,14.0,95,76,51,29.92,29.92,27,5,27,0.12
2013-12-16,32.5,26.0,21.6,20.0,8.8,1.6,68,48,35,29.92,29.92,21,6,21,0.00
2013-12-17,30.6,24.6,19.9,22.7,16.5,7.5,86,72,47,29.92,29.92,11,3,11,0.00
2013-12-18,37.6,30.0,21.7,20.1,15.5,10.4,85,56,34,29.92,29.92,24,7,24,0.01
2013-12-19,51.6,35.2,21.0,27.3,21.6,13.2,77,59,33,29.92,29.92,97,3,97,0.01
2013-12-20,51.6,43.8,37.0,36.8,29.1,25.0,67,57,43,29.92,29.92,10,3,10,0.00
2013-12-21,66.0,53.1,43.5,51.3,44.6,34.3,90,73,56,29.92,29.92,14,5,14,0.00
2013-12-22,62.6,57.9,55.9,60.0,53.3,51.3,96,85,79,29.92,29.92,25,9,25,0.07
2013-12-23,57.2,50.3,35.2,56.1,46.0,22.3,98,86,58,29.92,29.92,22,6,22,0.26
2013-12-24,38.5,31.0,21.7,24.6,14.7,-1.5,82,51,31,29.92,29.92,27,10,27,0.00
2013-12-25,33.6,23.9,16.9,11.1,4.1,-2.4,57,43,27,29.92,29.92,15,6,15,0.00
2013-12-26,41.0,29.0,19.6,27.4,17.6,10.1,85,63,43,29.92,29.92,23,4,26,0.02
2013-12-27,48.0,35.3,26.2,21.5,13.7,7.7,60,42,22,29.92,29.92,21,4,21,0.00
2013-12-28,58.3,41.8,29.5,27.9,20.7,12.9,55,44,24,29.92,29.92,18,4,18,0.00
2013-12-29,43.0,40.6,37.6,42.5,34.9,23.5,99,82,48,29.92,29.92,21,5,21,0.52
2013-12-30,43.2,35.4,24.6,37.8,24.2,7.8,90,65,44,29.92,29.92,22,6,22,0.00
2013-12-31,36.5,27.5,21.9,20.1,11.0,6.7,63,50,34,29.92,29.92,27,6,27,0.00
2014-1-1,42.6,29.8,18.9,23.1,16.5,6.9,71,58,44,29.92,29.92,14,4,14,0.00
2014-1-2,32.5,27.5,17.4,25.6,21.1,12.0,85,77,66,29.92,29.92,20,6,20,0.00